createdAt,value
2022-10-01T00:02:09.641Z,100881.19
2022-10-01T00:04:38.489Z,100878.06
2022-10-01T00:07:11.144Z,100871.03
2022-10-01T00:09:39.925Z,100876.03
2022-10-01T00:12:08.912Z,100879.00
2022-10-01T00:14:39.635Z,100876.44
2022-10-01T00:17:09.674Z,100871.38
2022-10-01T00:19:38.176Z,100874.47
2022-10-01T00:22:06.745Z,100878.84
2022-10-01T00:24:36.773Z,100876.34
2022-10-01T00:27:05.604Z,100871.13
2022-10-01T00:29:34.269Z,100874.63
2022-10-01T00:32:03.165Z,100874.47
2022-10-01T00:34:33.340Z,100872.84
2022-10-01T00:37:01.715Z,100871.44
2022-10-01T00:39:30.276Z,100875.41
2022-10-01T00:41:58.751Z,100871.03
2022-10-01T00:44:33.972Z,100874.78
2022-10-01T00:47:14.071Z,100863.34
2022-10-01T00:49:46.698Z,100855.13
2022-10-01T00:52:19.919Z,100862.00
2022-10-01T00:54:52.094Z,100859.50
2022-10-01T00:57:24.394Z,100854.09
2022-10-01T00:59:54.934Z,100850.28
2022-10-01T01:02:23.626Z,100852.00
2022-10-01T01:04:54.040Z,100848.97
2022-10-01T01:07:23.664Z,100851.38
2022-10-01T01:09:54.287Z,100857.25
2022-10-01T01:12:35.063Z,100850.44
2022-10-01T01:15:16.341Z,100856.44
2022-10-01T01:17:54.723Z,100860.59
2022-10-01T01:20:53.311Z,100861.59
2022-10-01T01:23:57.707Z,100848.72
2022-10-01T01:26:36.207Z,100844.59
2022-10-01T01:29:11.918Z,100842.50
2022-10-01T01:31:46.472Z,100844.44
2022-10-01T01:34:22.381Z,100848.97
2022-10-01T01:36:58.778Z,100854.09
2022-10-01T01:39:32.774Z,100850.31
2022-10-01T01:42:05.611Z,100850.38
2022-10-01T01:44:39.997Z,100853.41
2022-10-01T01:47:11.008Z,100847.03
2022-10-01T01:49:40.160Z,100846.53
2022-10-01T01:52:13.648Z,100849.97
2022-10-01T01:54:44.566Z,100842.16
2022-10-01T01:57:14.513Z,100845.84
2022-10-01T01:59:44.817Z,100840.47
2022-10-01T02:02:16.950Z,100835.44
2022-10-01T02:04:48.294Z,100834.75
2022-10-01T02:07:53.160Z,100835.69
2022-10-01T02:10:35.265Z,100828.66
2022-10-01T02:13:17.752Z,100830.38
2022-10-01T02:16:01.540Z,100831.31
2022-10-01T02:18:35.754Z,100824.66
2022-10-01T02:21:13.509Z,100828.63
2022-10-01T02:23:46.571Z,100822.06
2022-10-01T02:26:19.570Z,100828.66
2022-10-01T02:28:52.473Z,100824.25
2022-10-01T02:31:25.297Z,100824.84
2022-10-01T02:33:55.997Z,100816.66
2022-10-01T02:36:26.695Z,100815.91
2022-10-01T02:38:56.974Z,100809.34
2022-10-01T02:41:30.416Z,100817.97
2022-10-01T02:44:04.837Z,100815.16
2022-10-01T02:46:42.353Z,100814.22
2022-10-01T02:49:13.575Z,100817.56
2022-10-01T02:51:45.772Z,100812.78
2022-10-01T02:54:21.476Z,100808.84
2022-10-01T02:57:07.574Z,100806.09
2022-10-01T02:59:36.254Z,100811.41
2022-10-01T03:02:06.481Z,100814.84
2022-10-01T03:04:35.484Z,100809.34
2022-10-01T03:07:04.943Z,100817.50
2022-10-01T03:09:33.782Z,100810.25
2022-10-01T03:12:03.378Z,100804.03
2022-10-01T03:14:32.579Z,100809.47
2022-10-01T03:17:01.410Z,100810.13
2022-10-01T03:19:31.716Z,100803.13
2022-10-01T03:22:00.397Z,100804.56
2022-10-01T03:24:29.484Z,100808.84
2022-10-01T03:26:58.544Z,100809.03
2022-10-01T03:29:27.765Z,100812.81
2022-10-01T03:31:56.525Z,100811.44
2022-10-01T03:34:25.702Z,100807.22
2022-10-01T03:36:55.990Z,100803.63
2022-10-01T03:39:24.668Z,100804.91
2022-10-01T03:41:54.550Z,100802.25
2022-10-01T03:44:23.298Z,100797.97
2022-10-01T03:46:52.081Z,100803.03
2022-10-01T03:49:20.811Z,100798.06
2022-10-01T03:51:49.519Z,100802.19
2022-10-01T03:54:20.561Z,100792.41
2022-10-01T03:56:49.104Z,100794.38
2022-10-01T03:59:17.923Z,100790.50
2022-10-01T04:01:46.655Z,100795.66
2022-10-01T04:04:15.524Z,100784.34
2022-10-01T04:06:44.161Z,100782.78
2022-10-01T04:09:12.862Z,100780.22
2022-10-01T04:11:43.108Z,100781.09
2022-10-01T04:14:11.823Z,100781.41
2022-10-01T04:16:40.653Z,100779.72
2022-10-01T04:19:09.458Z,100780.72
2022-10-01T04:21:39.428Z,100780.47
2022-10-01T04:24:08.423Z,100775.28
2022-10-01T04:26:37.158Z,100775.44
2022-10-01T04:29:07.414Z,100769.41
2022-10-01T04:31:36.475Z,100767.94
2022-10-01T04:34:05.662Z,100764.19
2022-10-01T04:36:34.359Z,100756.09
2022-10-01T04:39:03.171Z,100766.31
2022-10-01T04:41:32.423Z,100770.91
2022-10-01T04:44:01.629Z,100770.59
2022-10-01T04:46:31.864Z,100767.94
2022-10-01T04:49:01.342Z,100772.22
2022-10-01T04:51:30.083Z,100770.16
2022-10-01T04:53:58.784Z,100762.19
2022-10-01T04:56:27.383Z,100765.22
2022-10-01T04:58:56.088Z,100763.91
2022-10-01T05:01:24.997Z,100765.25
2022-10-01T05:03:55.575Z,100771.72
2022-10-01T05:06:24.360Z,100763.72
2022-10-01T05:08:53.082Z,100765.91
2022-10-01T05:11:21.923Z,100764.31
2022-10-01T05:13:50.439Z,100769.50
2022-10-01T05:16:19.367Z,100750.94
2022-10-01T05:18:47.901Z,100763.59
2022-10-01T05:21:29.680Z,100756.81
2022-10-01T05:24:06.110Z,100759.69
2022-10-01T05:26:45.979Z,100763.84
2022-10-01T05:29:22.719Z,100757.19
2022-10-01T05:31:51.717Z,100758.13
2022-10-01T05:34:20.528Z,100757.09
2022-10-01T05:36:50.740Z,100761.13
2022-10-01T05:39:19.439Z,100755.44
2022-10-01T05:41:48.187Z,100760.81
2022-10-01T05:44:16.894Z,100759.38
2022-10-01T05:46:45.814Z,100756.16
2022-10-01T05:49:15.479Z,100752.16
2022-10-01T05:51:44.198Z,100753.41
2022-10-01T05:54:16.390Z,100755.53
2022-10-01T05:56:45.286Z,100763.03
2022-10-01T05:59:15.164Z,100761.66
2022-10-01T06:01:43.866Z,100760.81
2022-10-01T06:04:12.693Z,100759.75
2022-10-01T06:06:42.148Z,100756.94
2022-10-01T06:09:10.976Z,100758.41
2022-10-01T06:11:42.157Z,100751.78
2022-10-01T06:14:11.031Z,100747.53
2022-10-01T06:16:39.701Z,100745.00
2022-10-01T06:19:08.536Z,100744.47
2022-10-01T06:21:37.782Z,100745.97
2022-10-01T06:24:07.289Z,100747.28
2022-10-01T06:26:35.943Z,100747.28
2022-10-01T06:29:06.204Z,100746.63
2022-10-01T06:31:35.059Z,100748.00
2022-10-01T06:34:03.926Z,100741.38
2022-10-01T06:36:32.570Z,100734.44
2022-10-01T06:39:01.348Z,100745.66
2022-10-01T06:41:30.136Z,100736.03
2022-10-01T06:43:58.786Z,100734.88
2022-10-01T06:46:29.165Z,100735.81
2022-10-01T06:48:57.785Z,100732.94
2022-10-01T06:51:40.266Z,100742.41
2022-10-01T06:54:09.271Z,100742.00
2022-10-01T06:56:38.097Z,100750.94
2022-10-01T06:59:06.910Z,100744.63
2022-10-01T07:01:38.200Z,100740.84
2022-10-01T07:04:07.268Z,100739.25
2022-10-01T07:06:35.924Z,100733.63
2022-10-01T07:09:04.731Z,100733.06
2022-10-01T07:11:33.483Z,100734.47
2022-10-01T07:14:02.524Z,100734.13
2022-10-01T07:16:31.789Z,100728.31
2022-10-01T07:19:02.905Z,100725.69
2022-10-01T07:21:31.862Z,100725.69
2022-10-01T07:24:03.367Z,100730.50
2022-10-01T07:26:32.043Z,100724.56
2022-10-01T07:29:00.648Z,100726.88
2022-10-01T07:31:29.383Z,100720.91
2022-10-01T07:33:59.406Z,100717.38
2022-10-01T07:36:29.447Z,100713.34
2022-10-01T07:38:59.363Z,100721.97
2022-10-01T07:41:27.999Z,100714.22
2022-10-01T07:43:56.662Z,100709.44
2022-10-01T07:46:25.423Z,100722.47
2022-10-01T07:48:54.848Z,100717.72
2022-10-01T07:51:24.786Z,100709.41
2022-10-01T07:53:55.106Z,100714.44
2022-10-01T07:56:24.104Z,100709.44
2022-10-01T07:58:56.557Z,100705.69
2022-10-01T08:01:25.362Z,100702.94
2022-10-01T08:03:54.354Z,100699.03
2022-10-01T08:06:25.556Z,100704.81
2022-10-01T08:08:55.987Z,100689.78
2022-10-01T08:11:24.957Z,100689.84
2022-10-01T08:13:56.161Z,100693.00
2022-10-01T08:16:29.351Z,100685.19
2022-10-01T08:18:57.957Z,100688.88
2022-10-01T08:21:26.912Z,100685.44
2022-10-01T08:23:57.097Z,100689.03
2022-10-01T08:26:25.822Z,100685.34
2022-10-01T08:28:54.565Z,100694.28
2022-10-01T08:31:23.491Z,100694.41
2022-10-01T08:33:52.259Z,100703.19
2022-10-01T08:36:22.081Z,100701.91
2022-10-01T08:38:50.882Z,100705.38
2022-10-01T08:41:34.575Z,100697.75
2022-10-01T08:44:07.925Z,100697.31
2022-10-01T08:46:38.925Z,100687.09
2022-10-01T08:49:17.462Z,100695.81
2022-10-01T08:51:51.709Z,100702.31
2022-10-01T08:54:29.551Z,100690.00
2022-10-01T08:57:02.903Z,100685.06
2022-10-01T08:59:40.886Z,100686.81
2022-10-01T09:02:25.204Z,100684.63
2022-10-01T09:05:01.311Z,100679.91
2022-10-01T09:07:51.237Z,100685.19
2022-10-01T09:10:32.278Z,100684.00
2022-10-01T09:13:09.538Z,100672.53
2022-10-01T09:15:45.951Z,100666.84
2022-10-01T09:18:25.517Z,100668.16
2022-10-01T09:20:58.919Z,100661.84
2022-10-01T09:23:30.256Z,100661.03
2022-10-01T09:26:01.726Z,100659.34
2022-10-01T09:28:34.690Z,100653.34
2022-10-01T09:31:14.067Z,100658.78
2022-10-01T09:33:44.343Z,100648.28
2022-10-01T09:36:21.263Z,100649.84
2022-10-01T09:38:59.442Z,100644.34
2022-10-01T09:41:28.178Z,100639.88
2022-10-01T09:43:58.478Z,100637.88
2022-10-01T09:46:27.908Z,100640.72
2022-10-01T09:49:02.247Z,100632.66
2022-10-01T09:51:38.229Z,100634.06
2022-10-01T09:54:17.208Z,100631.25
2022-10-01T09:56:51.171Z,100638.78
2022-10-01T09:59:28.510Z,100635.06
2022-10-01T10:02:00.600Z,100634.78
2022-10-01T10:04:31.912Z,100631.69
2022-10-01T10:07:04.002Z,100628.81
2022-10-01T10:09:35.038Z,100624.44
2022-10-01T10:12:04.619Z,100626.00
2022-10-01T10:14:37.698Z,100624.28
2022-10-01T10:17:08.737Z,100626.66
2022-10-01T10:19:44.160Z,100627.09
2022-10-01T10:22:23.469Z,100613.53
2022-10-01T10:24:53.720Z,100616.31
2022-10-01T10:27:26.896Z,100619.09
2022-10-01T10:30:06.975Z,100604.50
2022-10-01T10:32:36.318Z,100610.72
2022-10-01T10:35:11.580Z,100608.72
2022-10-01T10:37:49.559Z,100602.91
2022-10-01T10:40:24.613Z,100600.66
2022-10-01T10:42:58.001Z,100589.06
2022-10-01T10:45:33.723Z,100600.22
2022-10-01T10:48:04.205Z,100589.25
2022-10-01T10:50:36.548Z,100588.22
2022-10-01T10:53:20.162Z,100586.50
2022-10-01T10:55:56.823Z,100584.22
2022-10-01T10:58:27.784Z,100577.72
2022-10-01T11:01:01.170Z,100579.44
2022-10-01T11:03:32.143Z,100574.41
2022-10-01T11:06:11.933Z,100567.22
2022-10-01T11:08:41.631Z,100562.13
2022-10-01T11:11:21.718Z,100563.50
2022-10-01T11:14:12.059Z,100558.06
2022-10-01T11:17:01.861Z,100550.81
2022-10-01T11:19:52.998Z,100543.78
2022-10-01T11:22:35.226Z,100543.84
2022-10-01T11:25:26.910Z,100544.16
2022-10-01T11:28:08.233Z,100538.72
2022-10-01T11:30:48.606Z,100528.50
2022-10-01T11:33:30.390Z,100534.47
2022-10-01T11:36:04.706Z,100530.56
2022-10-01T11:38:45.922Z,100522.31
2022-10-01T11:41:23.681Z,100518.09
2022-10-01T11:43:56.362Z,100519.91
2022-10-01T11:46:50.446Z,100512.56
2022-10-01T11:49:50.381Z,100515.88
2022-10-01T11:52:35.962Z,100515.59
2022-10-01T11:55:33.043Z,100515.59
2022-10-01T11:58:26.121Z,100515.59
2022-10-01T12:01:04.822Z,100513.19
2022-10-01T12:03:43.885Z,100501.88
2022-10-01T12:06:16.186Z,100506.28
2022-10-01T12:08:52.118Z,100500.47
2022-10-01T12:11:29.763Z,100511.44
2022-10-01T12:14:04.831Z,100503.81
2022-10-01T12:16:43.419Z,100507.34
2022-10-01T12:19:17.826Z,100496.09
2022-10-01T12:21:52.283Z,100492.88
2022-10-01T12:24:25.900Z,100493.22
2022-10-01T12:27:03.968Z,100488.31
2022-10-01T12:29:43.817Z,100489.88
2022-10-01T12:32:23.366Z,100493.50
2022-10-01T12:35:04.285Z,100486.34
2022-10-01T12:37:52.164Z,100492.97
2022-10-01T12:40:30.818Z,100476.38
2022-10-01T12:43:39.328Z,100474.16
2022-10-01T12:46:15.959Z,100478.31
2022-10-01T12:48:53.252Z,100476.22
2022-10-01T12:51:38.639Z,100478.13
2022-10-01T12:54:26.806Z,100474.31
2022-10-01T12:57:01.920Z,100462.97
2022-10-01T12:59:44.881Z,100477.09
2022-10-01T13:02:36.299Z,100468.81
2022-10-01T13:05:14.426Z,100469.94
2022-10-01T13:07:56.738Z,100462.63
2022-10-01T13:11:00.282Z,100461.25
2022-10-01T13:13:33.731Z,100457.31
2022-10-01T13:16:10.880Z,100453.47
2022-10-01T13:18:54.919Z,100451.72
2022-10-01T13:21:33.738Z,100451.16
2022-10-01T13:24:09.690Z,100446.72
2022-10-01T13:26:48.722Z,100445.56
2022-10-01T13:29:31.680Z,100433.22
2022-10-01T13:32:02.175Z,100439.53
2022-10-01T13:34:40.589Z,100434.00
2022-10-01T13:37:14.824Z,100433.50
2022-10-01T13:39:45.283Z,100426.13
2022-10-01T13:42:25.860Z,100421.88
2022-10-01T13:45:00.503Z,100427.91
2022-10-01T13:47:29.943Z,100418.66
2022-10-01T13:50:04.119Z,100416.81
2022-10-01T13:52:33.737Z,100405.69
2022-10-01T13:55:03.568Z,100412.88
2022-10-01T13:57:36.412Z,100409.88
2022-10-01T14:00:22.824Z,100404.81
2022-10-01T14:03:29.005Z,100404.03
2022-10-01T14:05:59.463Z,100409.38
2022-10-01T14:08:32.128Z,100403.09
2022-10-01T14:11:23.586Z,100411.03
2022-10-01T14:14:14.595Z,100410.53
2022-10-01T14:16:48.414Z,100410.72
2022-10-01T14:19:22.700Z,100412.91
2022-10-01T14:22:03.142Z,100398.66
2022-10-01T14:24:40.003Z,100387.66
2022-10-01T14:27:18.821Z,100392.50
2022-10-01T14:30:03.461Z,100396.66
2022-10-01T14:32:48.438Z,100390.81
2022-10-01T14:35:30.800Z,100390.75
2022-10-01T14:38:02.082Z,100382.88
2022-10-01T14:40:38.148Z,100380.44
2022-10-01T14:43:18.322Z,100394.03
2022-10-01T14:46:02.487Z,100379.72
2022-10-01T14:48:33.761Z,100381.44
2022-10-01T14:51:06.457Z,100375.41
2022-10-01T14:53:37.744Z,100377.63
2022-10-01T14:56:09.385Z,100374.00
2022-10-01T14:58:41.263Z,100368.13
2022-10-01T15:01:19.923Z,100362.44
2022-10-01T15:03:50.552Z,100368.13
2022-10-01T15:06:21.228Z,100364.00
2022-10-01T15:08:53.904Z,100369.63
2022-10-01T15:11:25.566Z,100362.31
2022-10-01T15:13:57.934Z,100362.06
2022-10-01T15:16:29.876Z,100356.75
2022-10-01T15:19:02.764Z,100353.78
2022-10-01T15:21:36.853Z,100351.31
2022-10-01T15:24:08.225Z,100350.78
2022-10-01T15:26:37.598Z,100354.38
2022-10-01T15:29:13.407Z,100347.72
2022-10-01T15:31:45.527Z,100349.78
2022-10-01T15:34:17.814Z,100347.97
2022-10-01T15:36:48.874Z,100350.03
2022-10-01T15:39:28.889Z,100349.38
2022-10-01T15:41:58.601Z,100345.97
2022-10-01T15:44:46.671Z,100349.16
2022-10-01T15:47:35.763Z,100351.81
2022-10-01T15:50:17.546Z,100355.84
2022-10-01T15:52:58.084Z,100349.94
2022-10-01T15:55:35.815Z,100345.72
2022-10-01T15:58:09.635Z,100357.50
2022-10-01T16:00:55.633Z,100352.44
2022-10-01T16:03:29.447Z,100356.66
2022-10-01T16:06:00.243Z,100352.97
2022-10-01T16:08:34.622Z,100351.66
2022-10-01T16:11:17.598Z,100351.09
2022-10-01T16:13:49.195Z,100358.94
2022-10-01T16:16:30.584Z,100360.50
2022-10-01T16:19:23.012Z,100353.16
2022-10-01T16:22:21.294Z,100354.41
2022-10-01T16:24:52.410Z,100354.13
2022-10-01T16:27:24.053Z,100357.97
2022-10-01T16:30:04.958Z,100348.75
2022-10-01T16:32:38.450Z,100344.19
2022-10-01T16:35:25.650Z,100349.06
2022-10-01T16:37:58.141Z,100342.25
2022-10-01T16:40:28.780Z,100342.31
2022-10-01T16:42:59.161Z,100343.34
2022-10-01T16:45:32.975Z,100334.59
2022-10-01T16:48:02.109Z,100343.25
2022-10-01T16:50:32.062Z,100336.16
2022-10-01T16:53:01.577Z,100334.34
2022-10-01T16:55:36.673Z,100338.28
2022-10-01T16:58:06.412Z,100332.63
2022-10-01T17:00:35.976Z,100334.47
2022-10-01T17:03:09.297Z,100332.81
2022-10-01T17:05:40.719Z,100331.78
2022-10-01T17:08:12.292Z,100325.00
2022-10-01T17:10:45.387Z,100326.13
2022-10-01T17:13:15.451Z,100329.94
2022-10-01T17:15:44.473Z,100317.53
2022-10-01T17:18:13.990Z,100322.78
2022-10-01T17:20:44.133Z,100314.84
2022-10-01T17:23:14.051Z,100313.59
2022-10-01T17:25:43.150Z,100316.81
2022-10-01T17:28:14.134Z,100321.50
2022-10-01T17:30:48.238Z,100304.81
2022-10-01T17:33:20.051Z,100318.25
2022-10-01T17:35:54.817Z,100311.03
2022-10-01T17:38:24.757Z,100311.75
2022-10-01T17:40:56.732Z,100317.97
2022-10-01T17:43:25.674Z,100310.22
2022-10-01T17:45:58.261Z,100304.56
2022-10-01T17:48:27.221Z,100301.63
2022-10-01T17:51:05.702Z,100308.44
2022-10-01T17:53:41.122Z,100307.69
2022-10-01T17:56:13.977Z,100307.06
2022-10-01T17:58:45.698Z,100303.25
2022-10-01T18:01:16.883Z,100303.69
2022-10-01T18:03:46.717Z,100301.00
2022-10-01T18:06:16.770Z,100300.38
2022-10-01T18:08:55.008Z,100295.31
2022-10-01T18:11:26.380Z,100298.28
2022-10-01T18:13:55.245Z,100296.47
2022-10-01T18:16:25.790Z,100293.66
2022-10-01T18:21:49.039Z,100289.13
2022-10-01T18:24:18.338Z,100286.69
2022-10-01T18:26:47.301Z,100284.00
2022-10-01T18:29:19.858Z,100284.25
2022-10-01T18:31:56.128Z,100287.69
2022-10-01T18:34:33.377Z,100286.28
2022-10-01T18:37:08.080Z,100297.03
2022-10-01T18:39:43.742Z,100293.66
2022-10-01T18:42:18.075Z,100294.50
2022-10-01T18:44:52.284Z,100291.13
2022-10-01T18:47:34.361Z,100291.69
2022-10-01T18:50:26.243Z,100294.50
2022-10-01T18:53:10.788Z,100293.66
2022-10-01T18:56:11.702Z,100292.22
2022-10-01T18:58:58.585Z,100296.88
2022-10-01T19:01:39.790Z,100299.00
2022-10-01T19:04:27.901Z,100283.41
2022-10-01T19:07:09.983Z,100288.97
2022-10-01T19:09:49.183Z,100288.84
2022-10-01T19:12:31.406Z,100289.13
2022-10-01T19:15:11.045Z,100295.22
2022-10-01T19:18:06.980Z,100293.09
2022-10-01T19:20:50.201Z,100281.50
2022-10-01T19:23:34.960Z,100288.16
2022-10-01T19:26:12.515Z,100289.13
2022-10-01T19:29:00.222Z,100286.03
2022-10-01T19:31:37.499Z,100280.66
2022-10-01T19:34:12.624Z,100282.09
2022-10-01T19:36:45.767Z,100277.44
2022-10-01T19:39:22.881Z,100277.28
2022-10-01T19:41:59.306Z,100275.28
2022-10-01T19:44:33.401Z,100275.28
2022-10-01T19:47:15.939Z,100268.66
2022-10-01T19:49:46.162Z,100272.47
2022-10-01T19:52:18.391Z,100267.66
2022-10-01T19:54:54.485Z,100264.25
2022-10-01T19:57:27.223Z,100268.50
2022-10-01T19:59:59.928Z,100271.19
2022-10-01T20:02:35.410Z,100269.38
2022-10-01T20:05:07.439Z,100269.09
2022-10-01T20:07:47.260Z,100268.53
2022-10-01T20:10:22.160Z,100264.28
2022-10-01T20:13:01.161Z,100263.41
2022-10-01T20:15:42.251Z,100258.06
2022-10-01T20:18:28.037Z,100259.47
2022-10-01T20:21:15.642Z,100261.59
2022-10-01T20:23:50.760Z,100250.00
2022-10-01T20:26:31.697Z,100250.00
2022-10-01T20:29:21.921Z,100247.06
2022-10-01T20:31:59.676Z,100249.16
2022-10-01T20:34:39.160Z,100245.75
2022-10-01T20:37:35.187Z,100249.00
2022-10-01T20:40:11.905Z,100243.22
2022-10-01T20:42:47.101Z,100245.03
2022-10-01T20:45:23.306Z,100242.22
2022-10-01T20:47:58.283Z,100242.50
2022-10-01T20:50:32.499Z,100240.97
2022-10-01T20:53:11.943Z,100239.25
2022-10-01T20:55:43.202Z,100230.66
2022-10-01T20:58:19.561Z,100227.38
2022-10-01T21:00:54.497Z,100232.31
2022-10-01T21:03:28.062Z,100227.13
2022-10-01T21:05:59.801Z,100229.50
2022-10-01T21:08:38.803Z,100230.34
2022-10-01T21:11:12.895Z,100224.44
2022-10-01T21:13:49.461Z,100225.81
2022-10-01T21:16:38.249Z,100230.91
2022-10-01T21:19:22.019Z,100233.03
2022-10-01T21:21:58.800Z,100225.56
2022-10-01T21:24:51.021Z,100229.50
2022-10-01T21:27:47.866Z,100231.19
2022-10-01T21:30:19.042Z,100226.81
2022-10-01T21:33:13.838Z,100225.69
2022-10-01T21:35:55.238Z,100225.28
2022-10-01T21:38:32.463Z,100223.13
2022-10-01T21:41:29.657Z,100214.94
2022-10-01T21:44:14.162Z,100213.63
2022-10-01T21:46:53.501Z,100220.19
2022-10-01T21:49:33.231Z,100216.22
2022-10-01T21:52:11.300Z,100216.94
2022-10-01T21:55:01.757Z,100223.97
2022-10-01T21:57:44.303Z,100221.44
2022-10-01T22:00:19.621Z,100217.34
2022-10-01T22:03:09.380Z,100219.75
2022-10-01T22:05:46.202Z,100217.22
2022-10-01T22:08:25.718Z,100214.94
2022-10-01T22:10:58.257Z,100214.53
2022-10-01T22:13:30.568Z,100218.06
2022-10-01T22:16:03.482Z,100218.19
2022-10-01T22:18:38.220Z,100220.72
2022-10-01T22:21:11.940Z,100216.22
2022-10-01T22:23:46.370Z,100223.00
2022-10-01T22:26:18.517Z,100219.06
2022-10-01T22:28:51.629Z,100224.13
2022-10-01T22:31:24.214Z,100220.72
2022-10-01T22:33:58.826Z,100222.28
2022-10-01T22:36:35.013Z,100213.53
2022-10-01T22:39:09.291Z,100221.56
2022-10-01T22:41:42.830Z,100211.13
2022-10-01T22:44:15.373Z,100219.63
2022-10-01T22:47:10.438Z,100217.50
2022-10-01T22:49:53.075Z,100212.16
2022-10-01T22:52:33.541Z,100217.22
2022-10-01T22:55:18.209Z,100211.44
2022-10-01T22:57:58.451Z,100215.81
2022-10-01T23:00:27.307Z,100220.47
2022-10-01T23:03:12.277Z,100217.09
2022-10-01T23:05:54.220Z,100217.66
2022-10-01T23:08:34.896Z,100217.34
2022-10-01T23:11:12.848Z,100209.88
2022-10-01T23:13:50.102Z,100220.47
2022-10-01T23:16:27.856Z,100215.66
2022-10-01T23:19:07.592Z,100223.84
2022-10-01T23:21:42.959Z,100224.13
2022-10-01T23:24:27.228Z,100220.75
2022-10-01T23:27:08.844Z,100212.41
2022-10-01T23:29:55.577Z,100212.41
2022-10-01T23:32:42.317Z,100206.06
2022-10-01T23:35:16.139Z,100219.03
2022-10-01T23:38:05.789Z,100208.59
2022-10-01T23:40:41.455Z,100206.63
2022-10-01T23:43:17.888Z,100210.56
2022-10-01T23:45:52.838Z,100211.28
2022-10-01T23:48:26.989Z,100211.13
2022-10-01T23:51:00.893Z,100212.13
2022-10-01T23:53:35.655Z,100212.13
2022-10-01T23:56:27.913Z,100206.06
2022-10-01T23:59:03.239Z,100199.84
